Details for TUI Airlines UK (Thomson) at EGNM




Go Back


Latest METAR
Local Time

EGNM 241350Z 11014KT CAVOK 05/M03 Q1024

24/02/2018, 13:57:28

Description
Results
TUI Airlines UK (Thomson) Logo
Number of Pilots based at EGNM
0 Pilots Based here
Number of TUI Airlines UK (Thomson) Flights Departed from EGNM
0 Flights Departed
Number of TUI Airlines UK (Thomson) Flights Arrived at EGNM
0 Flights Arrived
Number of TUI Airlines UK (Thomson) Schedules Departing from EGNM
1 Schedules
Number of TUI Airlines UK (Thomson) Schedules Arriving at EGNM
1 Schedules
Number of TUI Airlines UK (Thomson) Schedules Departing from EGNM availible today
0 Schedules Today
Number of TUI Airlines UK (Thomson) Schedules Arriving at EGNM availible today
0 Schedules Today
Average Landing Rate at EGNM
-203 fpm
TUI Airlines UK (Thomson) Average Landing Rate at EGNM
0 fpm
Total Fuel Purchased at EGNM by TUI Airlines UK (Thomson)
0.00 kgs / 0.00 lbs

Pilots Based at EGNM


Pilot ID
Pilot Name
Pilot Rank
No. of Flights
No. of Flying Hours
There are no pilots assigned to this hub!   Will you be the first?
Content